createdAt,value
2022-09-03T00:00:02.137Z,17.63
2022-09-03T00:02:34.553Z,17.63
2022-09-03T00:05:04.880Z,17.60
2022-09-03T00:07:36.931Z,17.55
2022-09-03T00:10:08.067Z,17.49
2022-09-03T00:12:38.431Z,17.45
2022-09-03T00:15:06.551Z,17.45
2022-09-03T00:17:35.832Z,17.48
2022-09-03T00:20:06.005Z,17.46
2022-09-03T00:22:36.882Z,17.38
2022-09-03T00:25:04.791Z,17.33
2022-09-03T00:27:33.323Z,17.31
2022-09-03T00:30:01.471Z,17.31
2022-09-03T00:32:29.428Z,17.28
2022-09-03T00:34:58.248Z,17.21
2022-09-03T00:37:24.568Z,17.18
2022-09-03T00:39:55.493Z,17.17
2022-09-03T00:42:27.029Z,17.14
2022-09-03T00:44:59.739Z,17.12
2022-09-03T00:47:29.796Z,17.05
2022-09-03T00:50:02.847Z,17.05
2022-09-03T00:52:37.939Z,17.01
2022-09-03T00:55:10.181Z,17.02
2022-09-03T00:57:41.198Z,17.02
2022-09-03T01:00:09.420Z,16.95
2022-09-03T01:02:41.838Z,16.95
2022-09-03T01:05:11.338Z,16.90
2022-09-03T01:07:40.930Z,16.87
2022-09-03T01:10:15.359Z,16.86
2022-09-03T01:12:46.615Z,16.85
2022-09-03T01:15:15.374Z,16.80
2022-09-03T01:17:47.210Z,16.78
2022-09-03T01:20:46.587Z,16.73
2022-09-03T01:23:27.784Z,16.74
2022-09-03T01:26:03.106Z,16.74
2022-09-03T01:28:38.723Z,16.72
2022-09-03T01:31:08.732Z,16.69
2022-09-03T01:33:37.702Z,16.67
2022-09-03T01:36:09.535Z,16.62
2022-09-03T01:41:13.901Z,16.59
2022-09-03T01:43:45.714Z,16.58
2022-09-03T01:46:17.047Z,16.59
2022-09-03T01:48:44.640Z,16.60
2022-09-03T01:51:15.715Z,16.57
2022-09-03T01:53:52.034Z,16.54
2022-09-03T01:56:27.280Z,16.54
2022-09-03T01:58:59.127Z,16.48
2022-09-03T02:01:29.234Z,16.44
2022-09-03T02:03:57.139Z,16.42
2022-09-03T02:06:23.443Z,16.40
2022-09-03T02:08:49.751Z,16.37
2022-09-03T02:11:16.061Z,16.34
2022-09-03T02:13:44.314Z,16.33
2022-09-03T02:16:13.964Z,16.28
2022-09-03T02:18:42.366Z,16.29
2022-09-03T02:21:09.142Z,16.25
2022-09-03T02:23:35.511Z,16.21
2022-09-03T02:26:02.621Z,16.17
2022-09-03T02:28:30.640Z,16.12
2022-09-03T02:30:57.363Z,16.11
2022-09-03T02:33:25.160Z,16.11
2022-09-03T02:35:51.648Z,16.14
2022-09-03T02:38:19.333Z,16.10
2022-09-03T02:40:46.053Z,16.02
2022-09-03T02:43:14.563Z,16.01
2022-09-03T02:45:42.911Z,16.00
2022-09-03T02:48:10.083Z,15.97
2022-09-03T02:50:41.734Z,15.94
2022-09-03T02:53:08.323Z,15.96
2022-09-03T02:55:34.763Z,15.96
2022-09-03T02:58:01.074Z,15.97
2022-09-03T03:00:27.424Z,15.91
2022-09-03T03:02:54.921Z,15.88
2022-09-03T03:05:26.417Z,15.90
2022-09-03T03:07:54.064Z,15.89
2022-09-03T03:10:20.371Z,15.89
2022-09-03T03:12:46.700Z,15.90
2022-09-03T03:15:13.024Z,15.86
2022-09-03T03:17:39.349Z,15.89
2022-09-03T03:20:06.094Z,15.85
2022-09-03T03:22:32.427Z,15.79
2022-09-03T03:25:00.104Z,15.73
2022-09-03T03:27:26.419Z,15.73
2022-09-03T03:29:52.724Z,15.72
2022-09-03T03:32:19.039Z,15.70
2022-09-03T03:34:45.360Z,15.70
2022-09-03T03:37:11.672Z,15.69
2022-09-03T03:39:38.013Z,15.72
2022-09-03T03:42:05.762Z,15.67
2022-09-03T03:44:32.075Z,15.66
2022-09-03T03:46:58.390Z,15.61
2022-09-03T03:49:24.691Z,15.69
2022-09-03T03:51:51.006Z,15.65
2022-09-03T03:54:18.942Z,15.62
2022-09-03T03:56:45.250Z,15.60
2022-09-03T03:59:23.128Z,15.61
2022-09-03T04:01:49.455Z,15.57
2022-09-03T04:04:15.954Z,15.55
2022-09-03T04:06:42.334Z,15.54
2022-09-03T04:09:08.721Z,15.53
2022-09-03T04:11:35.023Z,15.50
2022-09-03T04:14:02.448Z,15.49
2022-09-03T04:16:30.172Z,15.46
2022-09-03T04:18:57.077Z,15.47
2022-09-03T04:21:24.271Z,15.43
2022-09-03T04:23:52.357Z,15.42
2022-09-03T04:26:20.379Z,15.44
2022-09-03T04:28:47.039Z,15.40
2022-09-03T04:31:14.926Z,15.37
2022-09-03T04:33:42.642Z,15.36
2022-09-03T04:36:10.570Z,15.34
2022-09-03T04:38:38.423Z,15.30
2022-09-03T04:41:04.755Z,15.30
2022-09-03T04:43:31.090Z,15.27
2022-09-03T04:45:57.746Z,15.28
2022-09-03T04:48:24.240Z,15.26
2022-09-03T04:50:52.043Z,15.25
2022-09-03T04:53:18.380Z,15.25
2022-09-03T04:55:44.686Z,15.25
2022-09-03T04:58:10.983Z,15.26
2022-09-03T05:00:37.761Z,15.26
2022-09-03T05:03:04.354Z,15.30
2022-09-03T05:05:30.715Z,15.30
2022-09-03T05:07:59.442Z,15.31
2022-09-03T05:10:25.853Z,15.33
2022-09-03T05:12:57.986Z,15.38
2022-09-03T05:15:24.302Z,15.45
2022-09-03T05:17:50.625Z,15.54
2022-09-03T05:20:17.087Z,15.57
2022-09-03T05:22:43.393Z,15.63
2022-09-03T05:25:11.153Z,15.70
2022-09-03T05:27:37.476Z,15.75
2022-09-03T05:30:04.070Z,15.81
2022-09-03T05:32:30.795Z,15.87
2022-09-03T05:34:57.074Z,15.94
2022-09-03T05:37:23.400Z,16.01
2022-09-03T05:39:49.765Z,16.08
2022-09-03T05:42:17.638Z,16.15
2022-09-03T05:44:43.969Z,16.23
2022-09-03T05:47:10.311Z,16.31
2022-09-03T05:49:37.160Z,16.36
2022-09-03T05:52:03.470Z,16.45
2022-09-03T05:54:29.769Z,16.51
2022-09-03T05:56:56.083Z,16.55
2022-09-03T05:59:23.729Z,16.57
2022-09-03T06:01:51.647Z,16.63
2022-09-03T06:04:20.446Z,16.69
2022-09-03T06:06:47.818Z,16.68
2022-09-03T06:09:14.779Z,16.73
2022-09-03T06:11:41.227Z,16.73
2022-09-03T06:14:08.970Z,16.74
2022-09-03T06:16:37.955Z,16.80
2022-09-03T06:19:04.901Z,16.88
2022-09-03T06:21:31.234Z,16.95
2022-09-03T06:23:58.463Z,17.04
2022-09-03T06:26:26.792Z,17.17
2022-09-03T06:28:53.135Z,17.25
2022-09-03T06:31:19.780Z,17.34
2022-09-03T06:33:47.791Z,17.47
2022-09-03T06:36:14.904Z,17.50
2022-09-03T06:38:41.754Z,17.53
2022-09-03T06:41:09.302Z,17.52
2022-09-03T06:43:36.299Z,17.54
2022-09-03T06:46:04.116Z,17.57
2022-09-03T06:48:31.424Z,17.64
2022-09-03T06:50:59.844Z,17.71
2022-09-03T06:53:26.639Z,17.71
2022-09-03T06:55:59.481Z,17.74
2022-09-03T06:58:28.663Z,17.73
2022-09-03T07:01:00.760Z,17.71
2022-09-03T07:03:27.119Z,17.69
2022-09-03T07:05:53.431Z,17.68
2022-09-03T07:08:21.101Z,17.67
2022-09-03T07:10:47.399Z,17.65
2022-09-03T07:13:13.727Z,17.72
2022-09-03T07:15:40.192Z,17.81
2022-09-03T07:18:06.528Z,17.95
2022-09-03T07:20:33.353Z,18.08
2022-09-03T07:22:59.634Z,18.23
2022-09-03T07:25:27.300Z,18.33
2022-09-03T07:27:53.645Z,18.40
2022-09-03T07:30:19.977Z,18.39
2022-09-03T07:32:46.525Z,18.40
2022-09-03T07:35:13.007Z,18.38
2022-09-03T07:37:40.535Z,18.42
2022-09-03T07:40:07.446Z,18.50
2022-09-03T07:42:35.114Z,18.55
2022-09-03T07:45:01.464Z,18.58
2022-09-03T07:47:27.798Z,18.68
2022-09-03T07:49:54.133Z,18.81
2022-09-03T07:52:20.426Z,18.91
2022-09-03T07:54:46.737Z,18.96
2022-09-03T07:57:13.054Z,18.99
2022-09-03T07:59:40.687Z,19.00
2022-09-03T08:02:07.010Z,18.97
2022-09-03T08:04:33.346Z,19.02
2022-09-03T08:06:59.670Z,19.11
2022-09-03T08:09:25.992Z,19.09
2022-09-03T08:11:52.320Z,19.08
2022-09-03T08:14:18.653Z,19.12
2022-09-03T08:16:46.789Z,19.24
2022-09-03T08:19:13.624Z,19.35
2022-09-03T08:21:39.962Z,19.43
2022-09-03T08:24:06.383Z,19.51
2022-09-03T08:26:33.906Z,19.57
2022-09-03T08:29:00.263Z,19.56
2022-09-03T08:31:26.762Z,19.58
2022-09-03T08:33:55.223Z,19.59
2022-09-03T08:36:22.578Z,19.60
2022-09-03T08:38:49.504Z,19.62
2022-09-03T08:41:19.779Z,19.66
2022-09-03T08:43:55.872Z,19.71
2022-09-03T08:46:24.540Z,19.85
2022-09-03T08:48:54.872Z,19.98
2022-09-03T08:51:23.649Z,20.11
2022-09-03T08:53:51.928Z,20.27
2022-09-03T08:56:21.728Z,20.43
2022-09-03T08:58:48.069Z,20.56
2022-09-03T09:01:21.783Z,20.73
2022-09-03T09:03:53.091Z,20.87
2022-09-03T09:06:26.378Z,20.91
2022-09-03T09:08:56.930Z,20.96
2022-09-03T09:11:29.495Z,21.03
2022-09-03T09:13:57.987Z,21.10
2022-09-03T09:16:29.393Z,21.22
2022-09-03T09:18:59.532Z,21.48
2022-09-03T09:21:29.963Z,21.68
2022-09-03T09:24:00.169Z,21.88
2022-09-03T09:26:26.578Z,22.03
2022-09-03T09:28:57.197Z,22.15
2022-09-03T09:31:23.810Z,22.30
2022-09-03T09:33:50.262Z,22.39
2022-09-03T09:36:17.535Z,22.43
2022-09-03T09:38:45.466Z,22.41
2022-09-03T09:41:12.473Z,22.43
2022-09-03T09:43:38.906Z,22.53
2022-09-03T09:46:12.288Z,22.59
2022-09-03T09:48:39.497Z,22.64
2022-09-03T09:51:07.088Z,22.74
2022-09-03T09:53:33.382Z,22.80
2022-09-03T09:56:01.207Z,22.83
2022-09-03T09:58:28.088Z,22.84
2022-09-03T10:00:55.617Z,22.86
2022-09-03T10:03:21.934Z,22.87
2022-09-03T10:05:58.081Z,22.95
2022-09-03T10:08:24.458Z,23.09
2022-09-03T10:10:51.191Z,23.21
2022-09-03T10:15:47.446Z,23.48
2022-09-03T10:18:16.578Z,23.59
2022-09-03T10:20:45.384Z,23.68
2022-09-03T10:23:13.918Z,23.84
2022-09-03T10:25:43.133Z,24.00
2022-09-03T10:28:10.134Z,24.11
2022-09-03T10:30:48.094Z,24.22
2022-09-03T10:33:18.630Z,24.24
2022-09-03T10:35:46.886Z,24.31
2022-09-03T10:38:17.925Z,24.39
2022-09-03T10:40:50.413Z,24.47
2022-09-03T10:43:26.634Z,24.59
2022-09-03T10:45:58.719Z,24.73
2022-09-03T10:48:37.343Z,24.88
2022-09-03T10:51:05.546Z,24.95
2022-09-03T10:53:39.546Z,25.08
2022-09-03T10:56:07.483Z,25.15
2022-09-03T10:58:48.286Z,25.19
2022-09-03T11:01:18.311Z,25.29
2022-09-03T11:03:48.435Z,25.43
2022-09-03T11:06:17.729Z,25.54
2022-09-03T11:08:46.512Z,25.57
2022-09-03T11:11:15.579Z,25.58
2022-09-03T11:13:45.999Z,25.65
2022-09-03T11:16:15.366Z,25.65
2022-09-03T11:18:44.545Z,25.67
2022-09-03T11:21:13.606Z,25.83
2022-09-03T11:23:41.685Z,25.91
2022-09-03T11:26:10.094Z,25.99
2022-09-03T11:28:40.505Z,26.05
2022-09-03T11:31:13.507Z,26.14
2022-09-03T11:33:41.747Z,26.21
2022-09-03T11:36:08.079Z,26.29
2022-09-03T11:38:36.696Z,26.36
2022-09-03T11:41:04.585Z,26.41
2022-09-03T11:43:32.080Z,26.50
2022-09-03T11:46:02.412Z,26.55
2022-09-03T11:48:34.017Z,26.52
2022-09-03T11:51:00.420Z,26.53
2022-09-03T11:53:32.862Z,26.51
2022-09-03T11:56:02.223Z,26.60
2022-09-03T11:58:30.011Z,26.73
2022-09-03T12:00:56.952Z,26.82
2022-09-03T12:03:25.006Z,26.90
2022-09-03T12:05:59.691Z,26.95
2022-09-03T12:08:43.731Z,26.99
2022-09-03T12:11:20.522Z,27.02
2022-09-03T12:13:51.313Z,26.99
2022-09-03T12:16:32.550Z,27.01
2022-09-03T12:19:02.775Z,27.04
2022-09-03T12:21:29.081Z,27.06
2022-09-03T12:23:58.322Z,27.11
2022-09-03T12:26:26.991Z,27.18
2022-09-03T12:28:54.674Z,27.21
2022-09-03T12:31:22.171Z,27.24
2022-09-03T12:33:49.390Z,27.28
2022-09-03T12:36:15.722Z,27.31
2022-09-03T12:39:09.843Z,27.40
2022-09-03T12:41:30.268Z,27.37
2022-09-03T12:43:57.519Z,27.34
2022-09-03T12:46:30.290Z,27.36
2022-09-03T12:51:51.332Z,27.34
2022-09-03T12:54:19.403Z,27.30
2022-09-03T12:56:51.275Z,27.30
2022-09-03T12:59:20.500Z,27.31
2022-09-03T13:01:49.058Z,27.30
2022-09-03T13:04:17.647Z,27.32
2022-09-03T13:06:48.098Z,27.31
2022-09-03T13:09:14.667Z,27.28
2022-09-03T13:11:40.971Z,27.26
2022-09-03T13:14:09.843Z,27.19
2022-09-03T13:16:51.168Z,27.07
2022-09-03T13:19:21.914Z,26.95
2022-09-03T13:21:50.560Z,26.93
2022-09-03T13:24:23.611Z,26.87
2022-09-03T13:26:56.867Z,26.77
2022-09-03T13:29:34.255Z,26.64
2022-09-03T13:32:06.118Z,26.55
2022-09-03T13:34:36.422Z,26.54
2022-09-03T13:37:09.983Z,26.53
2022-09-03T13:39:41.165Z,26.48
2022-09-03T13:42:12.611Z,26.38
2022-09-03T13:44:45.087Z,26.22
2022-09-03T13:47:16.950Z,26.18
2022-09-03T13:49:47.620Z,26.13
2022-09-03T13:52:19.198Z,26.11
2022-09-03T13:54:49.709Z,26.19
2022-09-03T13:57:24.753Z,26.21
2022-09-03T13:59:54.736Z,26.13
2022-09-03T14:02:28.361Z,26.00
2022-09-03T14:05:06.467Z,25.88
2022-09-03T14:07:44.378Z,25.81
2022-09-03T14:10:19.770Z,25.77
2022-09-03T14:12:49.143Z,25.75
2022-09-03T14:15:20.479Z,25.71
2022-09-03T14:17:49.330Z,25.68
2022-09-03T14:20:19.813Z,25.68
2022-09-03T14:22:50.905Z,25.67
2022-09-03T14:25:18.619Z,25.70
2022-09-03T14:27:45.139Z,25.72
2022-09-03T14:30:20.184Z,25.75
2022-09-03T14:32:51.654Z,25.81
2022-09-03T14:35:32.980Z,25.83
2022-09-03T14:38:17.224Z,25.85
2022-09-03T14:40:45.302Z,25.86
2022-09-03T14:43:18.401Z,25.87
2022-09-03T14:45:52.282Z,25.93
2022-09-03T14:48:29.286Z,25.96
2022-09-03T14:51:05.759Z,26.01
2022-09-03T14:53:44.760Z,26.04
2022-09-03T14:56:17.579Z,26.07
2022-09-03T14:58:54.769Z,26.16
2022-09-03T15:01:28.311Z,26.31
2022-09-03T15:04:09.803Z,26.42
2022-09-03T15:06:43.400Z,26.50
2022-09-03T15:09:19.416Z,26.59
2022-09-03T15:11:49.219Z,26.58
2022-09-03T15:14:18.507Z,26.55
2022-09-03T15:16:51.215Z,26.50
2022-09-03T15:19:36.186Z,26.47
2022-09-03T15:22:08.156Z,26.45
2022-09-03T15:24:40.212Z,26.44
2022-09-03T15:27:14.464Z,26.47
2022-09-03T15:29:48.743Z,26.48
2022-09-03T15:32:22.558Z,26.42
2022-09-03T15:34:56.761Z,26.34
2022-09-03T15:37:25.337Z,26.27
2022-09-03T15:39:59.119Z,26.20
2022-09-03T15:42:26.555Z,26.11
2022-09-03T15:44:54.323Z,26.01
2022-09-03T15:47:50.823Z,25.97
2022-09-03T15:50:27.125Z,25.87
2022-09-03T15:52:56.302Z,25.80
2022-09-03T15:55:25.322Z,25.79
2022-09-03T15:57:54.794Z,25.79
2022-09-03T16:00:21.834Z,25.82
2022-09-03T16:02:53.341Z,25.85
2022-09-03T16:05:20.778Z,25.90
2022-09-03T16:07:58.073Z,25.95
2022-09-03T16:10:35.574Z,26.00
2022-09-03T16:13:05.652Z,26.06
2022-09-03T16:15:35.999Z,26.12
2022-09-03T16:18:08.102Z,26.17
2022-09-03T16:20:36.746Z,26.18
2022-09-03T16:23:06.044Z,26.20
2022-09-03T16:25:35.561Z,26.21
2022-09-03T16:28:11.527Z,26.16
2022-09-03T16:30:50.230Z,26.14
2022-09-03T16:33:23.903Z,26.09
2022-09-03T16:35:57.876Z,26.02
2022-09-03T16:38:28.284Z,25.92
2022-09-03T16:40:57.295Z,25.85
2022-09-03T16:43:40.005Z,25.79
2022-09-03T16:46:13.769Z,25.73
2022-09-03T16:48:48.960Z,25.66
2022-09-03T16:51:20.049Z,25.58
2022-09-03T16:53:54.939Z,25.52
2022-09-03T16:56:36.151Z,25.46
2022-09-03T16:59:07.439Z,25.38
2022-09-03T17:01:45.255Z,25.29
2022-09-03T17:04:31.012Z,25.21
2022-09-03T17:07:04.658Z,25.14
2022-09-03T17:09:38.186Z,25.03
2022-09-03T17:12:07.721Z,24.96
2022-09-03T17:14:51.755Z,24.89
2022-09-03T17:17:23.936Z,24.80
2022-09-03T17:19:53.433Z,24.72
2022-09-03T17:22:26.462Z,24.63
2022-09-03T17:24:53.868Z,24.55
2022-09-03T17:27:33.304Z,24.48
2022-09-03T17:30:05.707Z,24.42
2022-09-03T17:32:37.776Z,24.36
2022-09-03T17:35:10.335Z,24.30
2022-09-03T17:37:43.353Z,24.25
2022-09-03T17:40:21.919Z,24.19
2022-09-03T17:42:53.840Z,24.15
2022-09-03T17:45:26.405Z,24.09
2022-09-03T17:48:02.055Z,24.06
2022-09-03T17:50:32.308Z,24.00
2022-09-03T17:53:02.824Z,23.94
2022-09-03T17:55:31.300Z,23.89
2022-09-03T17:57:59.939Z,23.83
2022-09-03T18:00:30.166Z,23.77
2022-09-03T18:03:00.075Z,23.69
2022-09-03T18:05:28.718Z,23.65
2022-09-03T18:08:00.320Z,23.59
2022-09-03T18:10:30.133Z,23.53
2022-09-03T18:13:04.294Z,23.47
2022-09-03T18:15:32.586Z,23.37
2022-09-03T18:18:02.487Z,23.24
2022-09-03T18:20:30.723Z,23.14
2022-09-03T18:23:02.065Z,23.06
2022-09-03T18:25:29.272Z,22.97
2022-09-03T18:27:57.619Z,22.87
2022-09-03T18:30:24.910Z,22.77
2022-09-03T18:32:51.363Z,22.66
2022-09-03T18:35:17.745Z,22.56
2022-09-03T18:37:44.076Z,22.47
2022-09-03T18:40:16.838Z,22.38
2022-09-03T18:42:51.267Z,22.28
2022-09-03T18:45:24.232Z,22.20
2022-09-03T18:48:04.741Z,22.11
2022-09-03T18:50:39.173Z,22.05
2022-09-03T18:53:08.618Z,21.96
2022-09-03T18:55:43.479Z,21.88
2022-09-03T18:58:16.571Z,21.80
2022-09-03T19:00:49.948Z,21.72
2022-09-03T19:03:22.378Z,21.65
2022-09-03T19:05:53.776Z,21.62
2022-09-03T19:08:24.762Z,21.56
2022-09-03T19:10:55.280Z,21.52
2022-09-03T19:13:27.494Z,21.49
2022-09-03T19:15:57.795Z,21.45
2022-09-03T19:18:31.720Z,21.38
2022-09-03T19:21:03.211Z,21.31
2022-09-03T19:23:29.528Z,21.23
2022-09-03T19:26:02.121Z,21.19
2022-09-03T19:28:30.015Z,21.20
2022-09-03T19:31:04.028Z,21.21
2022-09-03T19:33:35.917Z,21.24
2022-09-03T19:36:07.682Z,21.26
2022-09-03T19:38:40.172Z,21.20
2022-09-03T19:41:17.309Z,21.18
2022-09-03T19:43:50.055Z,21.17
2022-09-03T19:46:19.708Z,21.11
2022-09-03T19:48:52.280Z,21.04
2022-09-03T19:51:20.759Z,21.00
2022-09-03T19:53:47.480Z,20.99
2022-09-03T19:56:22.467Z,20.99
2022-09-03T19:58:50.618Z,21.00
2022-09-03T20:01:18.775Z,21.01
2022-09-03T20:03:45.153Z,21.00
2022-09-03T20:06:11.739Z,21.01
2022-09-03T20:08:38.204Z,21.02
2022-09-03T20:11:05.172Z,20.99
2022-09-03T20:13:33.411Z,20.95
2022-09-03T20:16:03.680Z,20.89
2022-09-03T20:18:38.379Z,20.85
2022-09-03T20:21:10.748Z,20.80
2022-09-03T20:23:41.183Z,20.75
2022-09-03T20:26:15.710Z,20.67
2022-09-03T20:28:55.982Z,20.59
2022-09-03T20:31:24.226Z,20.51
2022-09-03T20:33:57.405Z,20.44
2022-09-03T20:36:29.252Z,20.38
2022-09-03T20:39:00.215Z,20.31
2022-09-03T20:41:32.421Z,20.31
2022-09-03T20:44:06.784Z,20.23
2022-09-03T20:46:39.357Z,20.14
2022-09-03T20:49:09.854Z,20.03
2022-09-03T20:51:39.267Z,19.94
2022-09-03T20:54:19.892Z,19.92
2022-09-03T20:56:51.658Z,19.82
2022-09-03T20:59:26.091Z,19.76
2022-09-03T21:01:57.142Z,19.65
2022-09-03T21:04:34.496Z,19.55
2022-09-03T21:07:04.359Z,19.53
2022-09-03T21:09:37.175Z,19.55
2022-09-03T21:12:07.985Z,19.58
2022-09-03T21:14:38.778Z,19.56
2022-09-03T21:17:18.781Z,19.55
2022-09-03T21:19:56.758Z,19.56
2022-09-03T21:22:27.267Z,19.58
2022-09-03T21:24:56.759Z,19.58
2022-09-03T21:27:24.309Z,19.56
2022-09-03T21:29:57.519Z,19.60
2022-09-03T21:32:29.565Z,19.65
2022-09-03T21:34:58.602Z,19.67
2022-09-03T21:37:24.935Z,19.69
2022-09-03T21:39:53.611Z,19.72
2022-09-03T21:42:24.505Z,19.74
2022-09-03T21:44:58.912Z,19.77
2022-09-03T21:47:27.187Z,19.71
2022-09-03T21:49:58.312Z,19.69
2022-09-03T21:52:28.799Z,19.67
2022-09-03T21:54:55.106Z,19.66
2022-09-03T21:57:28.691Z,19.58
2022-09-03T22:00:02.707Z,19.52
2022-09-03T22:02:29.520Z,19.41
2022-09-03T22:04:56.875Z,19.32
2022-09-03T22:07:27.122Z,19.27
2022-09-03T22:09:58.646Z,19.20
2022-09-03T22:12:28.475Z,19.17
2022-09-03T22:14:55.187Z,19.13
2022-09-03T22:17:29.783Z,19.08
2022-09-03T22:19:56.387Z,18.99
2022-09-03T22:22:26.451Z,18.89
2022-09-03T22:24:56.698Z,18.85
2022-09-03T22:27:27.435Z,18.80
2022-09-03T22:30:01.741Z,18.74
2022-09-03T22:32:35.110Z,18.67
2022-09-03T22:35:17.837Z,18.65
2022-09-03T22:37:52.604Z,18.66
2022-09-03T22:40:23.432Z,18.70
2022-09-03T22:42:59.162Z,18.74
2022-09-03T22:45:39.021Z,18.77
2022-09-03T22:48:13.622Z,18.78
2022-09-03T22:50:44.874Z,18.76
2022-09-03T22:53:16.603Z,18.76
2022-09-03T22:55:45.975Z,18.74
2022-09-03T22:58:14.435Z,18.71
2022-09-03T23:00:41.988Z,18.68
2022-09-03T23:03:11.727Z,18.67
2022-09-03T23:05:44.158Z,18.63
2022-09-03T23:08:13.108Z,18.56
2022-09-03T23:10:49.155Z,18.48
2022-09-03T23:13:16.797Z,18.41
2022-09-03T23:15:44.950Z,18.44
2022-09-03T23:18:13.987Z,18.47
2022-09-03T23:20:42.056Z,18.47
2022-09-03T23:23:11.879Z,18.49
2022-09-03T23:25:43.022Z,18.51
2022-09-03T23:28:11.116Z,18.46
2022-09-03T23:30:37.479Z,18.46
2022-09-03T23:33:03.803Z,18.46
2022-09-03T23:35:43.453Z,18.45
2022-09-03T23:38:14.898Z,18.40
2022-09-03T23:40:44.608Z,18.34
2022-09-03T23:43:19.563Z,18.22
2022-09-03T23:45:49.440Z,18.09
2022-09-03T23:48:22.782Z,18.00
2022-09-03T23:50:57.322Z,17.95
2022-09-03T23:53:27.881Z,17.89
2022-09-03T23:56:01.127Z,17.87
2022-09-03T23:58:33.151Z,17.77
